Terminal Aerodrome Forecast
Issued by NWS Louisville, KY

Home | Current Version | Previous Version | Text Only | Print | Product List | Glossary On
Versions: 1 2 3 4 5 6 7 8 9 10 11 12 13 14 15 16 17 18 19 20
675
FTUS43 KLMK 100527
TAFBWG
TAF
KBWG 100527Z 1006/1106 29008KT P6SM VCSH SCT025 BKN040
      TEMPO 1008/1012 4SM -SHSN BKN025
     FM101600 27009KT P6SM BKN035
     FM110100 27005KT P6SM BKN040=

USA.gov is the U.S. government's official web portal to all federal, state and local government web resources and services.